Time;durP1;ratioP1;P1;durP2;ratioP2;P2;SDS_P1;SDS_P2;PMS_P1;PMS_P2;Temp;Humidity;BMP_temperature;BMP_pressure;BME280_temperature;BME280_humidity;BME280_pressure;Samples;Min_cycle;Max_cycle;Signal;HPM_P1;HPM_P2
2023/01/20 00:02:21;;;;;;;38.00;18.40;;;;;;;2.13;68.37;98510.63;5225307;28;20106;-70
2023/01/20 00:05:11;;;;;;;35.40;17.50;;;;;;;2.03;68.54;98509.59;5225785;28;20049;-71
2023/01/20 00:08:02;;;;;;;36.88;17.83;;;;;;;2.00;68.29;98509.78;5222285;28;20154;-72
2023/01/20 00:10:52;;;;;;;41.45;17.92;;;;;;;1.96;69.37;98510.94;5224810;28;20519;-72
2023/01/20 00:13:42;;;;;;;38.30;17.55;;;;;;;2.07;68.88;98522.34;5229113;28;20127;-72
2023/01/20 00:16:33;;;;;;;36.50;18.10;;;;;;;2.05;68.77;98526.00;5225344;28;20103;-72
2023/01/20 00:19:23;;;;;;;37.10;18.02;;;;;;;2.06;68.12;98519.84;5224861;28;20194;-72
2023/01/20 00:22:13;;;;;;;38.78;18.35;;;;;;;1.98;68.30;98512.47;5224280;28;20051;-72
2023/01/20 00:25:04;;;;;;;36.22;18.30;;;;;;;2.10;68.48;98531.78;5222154;28;20107;-72
2023/01/20 00:27:53;;;;;;;35.13;17.80;;;;;;;2.16;68.60;98533.16;5222816;28;20146;-74
2023/01/20 00:30:43;;;;;;;34.00;16.98;;;;;;;2.11;69.08;98536.88;5224661;28;20533;-72
2023/01/20 00:33:34;;;;;;;30.75;17.40;;;;;;;2.07;69.05;98519.72;5226547;28;20056;-72
2023/01/20 00:36:25;;;;;;;38.45;19.73;;;;;;;2.14;69.03;98541.06;5222629;28;20041;-71
2023/01/20 00:39:16;;;;;;;37.58;17.95;;;;;;;2.15;69.01;98544.53;5221292;28;20407;-71
2023/01/20 00:42:05;;;;;;;33.15;17.98;;;;;;;2.03;68.54;98525.28;5226519;28;20049;-73
2023/01/20 00:44:56;;;;;;;35.88;17.30;;;;;;;2.16;68.96;98544.44;5222284;28;20055;-72
2023/01/20 00:47:46;;;;;;;34.42;18.00;;;;;;;2.18;68.16;98537.31;5226081;28;20186;-71
2023/01/20 00:50:35;;;;;;;35.45;17.30;;;;;;;2.17;68.98;98555.72;5223832;28;20163;-71
2023/01/20 00:53:25;;;;;;;33.72;17.27;;;;;;;2.16;69.42;98549.66;5224872;28;20056;-71
2023/01/20 00:56:16;;;;;;;35.97;18.48;;;;;;;2.16;68.65;98554.06;5220950;28;20041;-72
2023/01/20 00:59:08;;;;;;;38.92;18.33;;;;;;;2.23;68.56;98548.31;5224064;28;20056;-72
2023/01/20 01:01:57;;;;;;;43.42;18.60;;;;;;;2.11;67.91;98541.28;5225342;28;20510;-73
2023/01/20 01:04:49;;;;;;;35.90;18.73;;;;;;;2.23;68.34;98566.63;5217459;28;20052;-72
2023/01/20 01:07:39;;;;;;;37.50;18.40;;;;;;;2.07;68.73;98565.97;5221205;28;20049;-74
2023/01/20 01:10:29;;;;;;;36.50;18.00;;;;;;;2.03;68.92;98561.88;5222587;28;20453;-75
2023/01/20 01:13:20;;;;;;;35.60;17.92;;;;;;;2.14;68.24;98576.84;5224321;28;20127;-74
2023/01/20 01:16:12;;;;;;;43.47;17.98;;;;;;;2.18;68.17;98565.25;5223119;28;20725;-71
2023/01/20 01:19:03;;;;;;;35.60;17.38;;;;;;;2.20;68.47;98582.53;5222678;28;20091;-72
2023/01/20 01:21:53;;;;;;;38.08;18.23;;;;;;;2.16;68.42;98582.84;5223999;28;20126;-72
2023/01/20 01:24:43;;;;;;;37.67;17.38;;;;;;;2.18;68.51;98587.00;5228788;28;20099;-70
2023/01/20 01:27:33;;;;;;;40.53;18.55;;;;;;;2.17;68.62;98587.97;5207396;28;20056;-71
2023/01/20 01:30:23;;;;;;;43.85;18.58;;;;;;;2.27;68.39;98593.41;5222165;28;20114;-71
2023/01/20 01:33:14;;;;;;;40.17;18.08;;;;;;;2.33;68.00;98591.25;5226085;28;20055;-72
2023/01/20 01:36:05;;;;;;;35.22;17.90;;;;;;;2.40;68.30;98596.91;5226188;28;20490;-71
2023/01/20 01:38:56;;;;;;;39.38;18.80;;;;;;;2.33;68.11;98600.88;5216916;28;20049;-72
2023/01/20 01:41:48;;;;;;;33.33;17.90;;;;;;;2.17;68.37;98598.41;5226945;28;20091;-72
2023/01/20 01:45:09;;;;;;;40.17;17.85;;;;;;;2.19;68.17;98604.41;5221965;28;20119;-71
2023/01/20 01:48:06;;;;;;;33.92;16.63;;;;;;;2.20;67.85;98607.84;5221563;28;20052;-73
2023/01/20 01:51:01;;;;;;;36.83;17.83;;;;;;;2.18;67.86;98605.31;5213882;28;20091;-72
2023/01/20 01:53:56;;;;;;;41.75;18.15;;;;;;;2.18;68.34;98614.94;5217649;28;20067;-73
2023/01/20 01:56:47;;;;;;;41.63;18.10;;;;;;;2.22;68.21;98617.28;5223873;28;20082;-71
2023/01/20 01:59:38;;;;;;;41.13;16.77;;;;;;;2.25;68.66;98624.06;5223722;28;20068;-73
2023/01/20 02:02:28;;;;;;;38.90;18.50;;;;;;;2.19;68.65;98616.66;5222657;28;20055;-72
2023/01/20 02:05:19;;;;;;;37.40;17.27;;;;;;;2.16;68.49;98622.06;5223400;28;20052;-70
2023/01/20 02:08:10;;;;;;;37.75;18.33;;;;;;;2.13;68.71;98612.63;5222794;28;20047;-72
2023/01/20 02:11:00;;;;;;;36.13;18.80;;;;;;;2.13;69.37;98614.41;5220956;28;20142;-71
2023/01/20 02:13:50;;;;;;;39.67;18.40;;;;;;;2.18;68.67;98626.25;5214053;28;20057;-71
2023/01/20 02:17:01;;;;;;;38.75;19.00;;;;;;;2.09;68.45;98611.19;5220615;28;20041;-71
2023/01/20 02:20:28;;;;;;;33.70;18.42;;;;;;;2.19;67.88;98625.31;5219269;28;20087;-72
2023/01/20 02:23:59;;;;;;;31.95;17.65;;;;;;;2.09;68.79;98617.25;5239111;28;20048;-72
2023/01/20 02:27:04;;;;;;;40.88;18.80;;;;;;;2.12;68.75;98624.06;5234358;28;20514;-71
2023/01/20 02:30:16;;;;;;;39.65;18.50;;;;;;;2.03;68.97;98627.25;5223479;28;20665;-72
2023/01/20 02:33:26;;;;;;;42.50;19.38;;;;;;;1.90;70.95;98631.59;5225259;28;20731;-71
2023/01/20 02:36:55;;;;;;;34.50;18.98;;;;;;;1.77;70.59;98631.53;5232437;28;20582;-70
2023/01/20 02:40:03;;;;;;;38.45;19.02;;;;;;;1.78;70.05;98631.44;5208517;28;20056;-71
2023/01/20 02:43:11;;;;;;;39.35;19.00;;;;;;;1.85;70.48;98629.25;5238533;28;20083;-70
2023/01/20 02:46:13;;;;;;;42.88;20.88;;;;;;;1.86;70.81;98636.19;5235410;28;20092;-72
2023/01/20 02:49:25;;;;;;;39.30;20.15;;;;;;;1.92;70.33;98640.16;5220200;28;20076;-71
2023/01/20 02:52:25;;;;;;;43.20;19.95;;;;;;;1.99;70.10;98631.84;5220187;28;20210;-71
2023/01/20 02:55:27;;;;;;;35.20;18.88;;;;;;;2.03;69.38;98635.09;5228295;28;20131;-71
2023/01/20 02:58:33;;;;;;;41.65;19.33;;;;;;;1.95;69.61;98638.19;5220772;28;20555;-73
2023/01/20 03:01:46;;;;;;;36.72;19.25;;;;;;;1.92;69.82;98646.25;5224730;28;20044;-72
2023/01/20 03:04:45;;;;;;;33.53;18.52;;;;;;;1.91;70.00;98649.78;5220382;28;20570;-75
2023/01/20 03:07:41;;;;;;;32.47;18.27;;;;;;;1.87;69.83;98651.75;5234417;28;20080;-73
2023/01/20 03:10:35;;;;;;;36.00;20.20;;;;;;;1.95;70.05;98655.66;5223049;28;20510;-73
2023/01/20 03:13:28;;;;;;;;;;;;;;;2.05;70.12;98661.97;5220774;28;20049;-71
2023/01/20 03:16:22;;;;;;;37.75;18.90;;;;;;;2.07;70.51;98668.78;5221419;28;20437;-74
2023/01/20 03:19:14;;;;;;;42.97;20.67;;;;;;;2.02;70.42;98668.25;5222396;28;20053;-73
2023/01/20 03:22:05;;;;;;;44.65;20.33;;;;;;;1.98;69.73;98656.28;5216255;28;20045;-73
2023/01/20 03:24:57;;;;;;;49.13;22.48;;;;;;;2.13;70.33;98674.56;5219196;28;20056;-72
2023/01/20 03:27:48;;;;;;;48.70;23.08;;;;;;;1.96;70.72;98673.88;5222263;28;20522;-71
2023/01/20 03:30:38;;;;;;;39.17;21.33;;;;;;;1.93;71.39;98662.78;5219045;28;20057;-71
2023/01/20 03:33:28;;;;;;;42.00;21.08;;;;;;;2.02;71.11;98673.50;5226090;28;20087;-70
2023/01/20 03:36:22;;;;;;;46.05;21.70;;;;;;;2.07;70.71;98671.41;5225769;28;20049;-71
2023/01/20 03:39:12;;;;;;;44.05;20.63;;;;;;;1.93;70.26;98676.69;5224685;28;20045;-71
2023/01/20 03:42:20;;;;;;;45.20;22.08;;;;;;;1.87;72.25;98677.06;5226150;28;20041;-70
2023/01/20 03:45:23;;;;;;;43.33;21.08;;;;;;;1.57;73.06;98685.88;5222625;28;20049;-71
2023/01/20 03:48:40;;;;;;;41.13;21.33;;;;;;;1.74;71.34;98686.63;5226533;28;20506;-70
2023/01/20 03:51:57;;;;;;;44.03;20.33;;;;;;;1.72;71.24;98685.88;5221146;28;20071;-74
2023/01/20 03:54:56;;;;;;;41.13;20.50;;;;;;;1.78;70.81;98694.16;5219733;28;20132;-69
2023/01/20 03:58:08;;;;;;;41.33;19.40;;;;;;;1.72;71.04;98689.31;5224750;28;20124;-70
2023/01/20 04:01:04;;;;;;;38.60;19.20;;;;;;;1.70;71.02;98693.81;5220020;28;20072;-70
2023/01/20 04:04:11;;;;;;;36.10;18.50;;;;;;;1.68;70.65;98692.22;5226050;28;20071;-70
2023/01/20 04:07:05;;;;;;;32.58;17.38;;;;;;;1.61;70.06;98689.16;5223001;28;20127;-70
2023/01/20 04:09:57;;;;;;;;;;;;;;;1.71;70.09;98699.88;5226145;28;20435;-70
2023/01/20 04:12:47;;;;;;;37.25;17.50;;;;;;;1.62;70.14;98698.66;5225950;28;20460;-69
2023/01/20 04:15:43;;;;;;;32.03;17.15;;;;;;;1.41;71.25;98703.44;5226800;28;20053;-69
2023/01/20 04:18:33;;;;;;;34.70;17.17;;;;;;;1.47;71.05;98697.00;5222804;28;20055;-70
2023/01/20 04:21:48;;;;;;;34.35;17.55;;;;;;;1.60;70.41;98711.00;5220006;28;20053;-70
2023/01/20 04:24:49;;;;;;;44.08;18.25;;;;;;;1.52;70.53;98716.69;5220557;28;20076;-69
2023/01/20 04:27:39;;;;;;;36.38;17.48;;;;;;;1.51;70.66;98719.41;5225807;28;20517;-70
2023/01/20 04:30:29;;;;;;;38.60;18.55;;;;;;;1.49;69.73;98705.56;5222193;28;20048;-69
2023/01/20 04:33:19;;;;;;;36.63;17.88;;;;;;;1.55;70.07;98721.72;5229137;28;20049;-69
2023/01/20 04:36:09;;;;;;;37.78;18.17;;;;;;;1.43;69.43;98730.31;5221995;28;20056;-70
2023/01/20 04:39:00;;;;;;;34.60;18.05;;;;;;;1.23;70.14;98721.06;5223035;28;20052;-70
2023/01/20 04:41:50;;;;;;;36.25;16.88;;;;;;;1.28;69.54;98732.06;5229122;28;20064;-70
2023/01/20 04:44:40;;;;;;;38.65;17.83;;;;;;;1.37;69.93;98739.38;5223369;28;20709;-70
2023/01/20 04:47:31;;;;;;;38.03;17.85;;;;;;;1.33;69.40;98737.03;5223591;28;20707;-71
2023/01/20 04:50:21;;;;;;;34.30;16.75;;;;;;;1.17;69.83;98727.50;5225659;28;20435;-70
2023/01/20 04:53:15;;;;;;;36.80;17.42;;;;;;;1.20;68.86;98742.16;5225151;28;20053;-70
2023/01/20 04:56:11;;;;;;;36.08;17.33;;;;;;;1.28;69.60;98752.13;5221753;28;20049;-70
2023/01/20 04:59:01;;;;;;;33.03;17.10;;;;;;;1.25;69.72;98752.31;5227167;28;20067;-70
2023/01/20 05:01:51;;;;;;;37.85;17.83;;;;;;;1.18;70.75;98759.66;5224464;28;20622;-70
2023/01/20 05:04:41;;;;;;;35.13;17.73;;;;;;;1.30;69.97;98766.78;5223945;28;20056;-71
2023/01/20 05:07:32;;;;;;;35.67;18.13;;;;;;;1.39;69.92;98768.00;5226892;28;20056;-71
2023/01/20 05:10:22;;;;;;;32.42;17.85;;;;;;;1.36;70.05;98770.81;5225716;28;20055;-71
2023/01/20 05:13:12;;;;;;;31.70;17.17;;;;;;;1.33;70.69;98753.53;5228764;28;20131;-71
2023/01/20 05:16:04;;;;;;;37.42;17.80;;;;;;;1.47;70.22;98775.41;5220638;28;20483;-71
2023/01/20 05:18:54;;;;;;;36.53;19.10;;;;;;;1.40;69.76;98767.09;5223971;28;20443;-70
2023/01/20 05:21:44;;;;;;;35.67;18.33;;;;;;;1.46;70.14;98787.63;5224678;28;20175;-70
2023/01/20 05:24:35;;;;;;;39.50;18.27;;;;;;;1.46;70.26;98789.38;5223246;28;20057;-71
2023/01/20 05:27:25;;;;;;;38.83;17.90;;;;;;;1.45;70.80;98790.31;5221980;28;20221;-70
2023/01/20 05:30:15;;;;;;;40.03;18.42;;;;;;;1.46;70.64;98785.00;5223852;28;20110;-70
2023/01/20 05:33:05;;;;;;;39.88;18.95;;;;;;;1.59;70.84;98788.56;5221864;28;20065;-71
2023/01/20 05:35:55;;;;;;;37.80;18.63;;;;;;;1.61;70.88;98788.47;5220787;28;20124;-70
2023/01/20 05:38:45;;;;;;;45.60;19.85;;;;;;;1.58;70.77;98794.69;5223536;28;20052;-70
2023/01/20 05:41:35;;;;;;;44.42;20.30;;;;;;;1.60;69.93;98803.31;5235726;28;20075;-70
2023/01/20 05:44:26;;;;;;;44.88;20.27;;;;;;;1.52;70.91;98800.28;5239549;28;20531;-71
2023/01/20 05:47:16;;;;;;;43.75;21.55;;;;;;;1.26;70.76;98778.34;5222359;28;20088;-71
2023/01/20 05:50:08;;;;;;;41.45;20.30;;;;;;;1.52;71.59;98810.75;5224004;28;20056;-71
2023/01/20 05:52:59;;;;;;;44.20;20.52;;;;;;;1.40;71.01;98812.34;5222032;28;20048;-70
2023/01/20 05:55:57;;;;;;;53.65;20.27;;;;;;;1.32;71.00;98800.63;5238148;28;20064;-70
2023/01/20 05:58:47;;;;;;;42.95;20.90;;;;;;;1.25;71.69;98805.38;5227376;28;20079;-70
2023/01/20 06:01:37;;;;;;;47.63;20.27;;;;;;;1.47;71.27;98817.19;5230825;28;20098;-70
2023/01/20 06:04:27;;;;;;;43.22;20.63;;;;;;;1.53;70.51;98825.50;5228880;28;20139;-70
2023/01/20 06:07:17;;;;;;;41.72;20.20;;;;;;;1.57;70.33;98823.56;5225860;28;20052;-70
2023/01/20 06:10:08;;;;;;;38.92;20.08;;;;;;;1.50;70.69;98814.41;5220928;28;20598;-70
2023/01/20 06:12:58;;;;;;;37.83;19.58;;;;;;;1.23;70.83;98798.59;5241437;22;20444;-73
2023/01/20 06:15:53;;;;;;;44.45;19.77;;;;;;;1.51;70.47;98831.75;5217432;28;20060;-71
2023/01/20 06:18:44;;;;;;;42.85;19.60;;;;;;;1.49;70.01;98821.41;5210020;28;20125;-71
2023/01/20 06:21:34;;;;;;;34.88;17.90;;;;;;;1.48;69.39;98838.00;5214133;28;20131;-71
2023/01/20 06:24:25;;;;;;;39.25;18.38;;;;;;;1.30;69.49;98831.25;5218324;28;20052;-71
2023/01/20 06:27:14;;;;;;;35.33;18.25;;;;;;;1.34;69.88;98840.59;5212609;28;20052;-70
2023/01/20 06:30:06;;;;;;;34.47;18.83;;;;;;;1.21;69.76;98826.56;5214958;28;20457;-70
2023/01/20 06:32:56;;;;;;;42.45;18.58;;;;;;;1.07;68.77;98820.38;5219536;28;20051;-71
2023/01/20 06:35:46;;;;;;;36.75;17.60;;;;;;;1.13;69.62;98853.13;5217869;28;20057;-70
2023/01/20 06:38:37;;;;;;;39.08;17.20;;;;;;;1.27;69.70;98855.78;5218017;28;21882;-70
2023/01/20 06:41:27;;;;;;;33.92;16.55;;;;;;;1.28;69.21;98862.66;5218061;28;20569;-70
2023/01/20 06:44:17;;;;;;;33.75;16.92;;;;;;;1.15;69.76;98846.03;5213589;28;20167;-70
2023/01/20 06:47:07;;;;;;;34.50;18.48;;;;;;;1.26;69.35;98874.13;5217389;28;20499;-69
2023/01/20 06:49:57;;;;;;;29.55;15.57;;;;;;;1.22;69.07;98862.19;5216587;28;20107;-70
2023/01/20 06:52:47;;;;;;;34.50;17.08;;;;;;;1.19;69.31;98865.81;5212965;28;20128;-71
2023/01/20 06:55:37;;;;;;;28.08;15.98;;;;;;;1.29;69.53;98887.88;5218636;28;20064;-71
2023/01/20 06:58:30;;;;;;;33.70;16.60;;;;;;;1.25;69.59;98888.97;5231526;28;20099;-71
2023/01/20 07:01:24;;;;;;;40.53;15.93;;;;;;;1.04;69.58;98871.91;5218608;28;20057;-71
2023/01/20 07:04:15;;;;;;;34.33;16.73;;;;;;;1.29;69.30;98902.69;5214746;28;20059;-70
2023/01/20 07:07:04;;;;;;;34.17;16.02;;;;;;;1.14;69.29;98892.19;5220220;28;20041;-70
2023/01/20 07:09:55;;;;;;;33.35;16.95;;;;;;;0.78;69.27;98874.22;5223186;28;20060;-71
2023/01/20 07:12:45;;;;;;;33.55;15.98;;;;;;;1.07;69.30;98913.53;5218468;28;20647;-71
2023/01/20 07:15:35;;;;;;;42.00;17.15;;;;;;;0.94;68.57;98908.97;5222603;28;20499;-70
2023/01/20 07:18:25;;;;;;;32.00;16.23;;;;;;;1.00;68.51;98914.81;5222712;28;20510;-70
2023/01/20 07:21:16;;;;;;;33.22;15.30;;;;;;;0.98;68.69;98920.09;5207515;28;20096;-70
2023/01/20 07:24:08;;;;;;;32.40;15.13;;;;;;;0.85;68.18;98909.50;5220603;28;20094;-70
2023/01/20 07:26:58;;;;;;;31.75;14.68;;;;;;;0.90;68.65;98917.91;5222786;28;20182;-70
2023/01/20 07:29:48;;;;;;;30.95;15.57;;;;;;;0.81;68.90;98928.84;5223381;28;20118;-69
2023/01/20 07:32:38;;;;;;;29.27;15.32;;;;;;;0.70;68.07;98916.41;5219538;28;20060;-69
2023/01/20 07:35:28;;;;;;;31.20;15.73;;;;;;;0.97;67.89;98943.69;5227973;28;20063;-69
2023/01/20 07:38:18;;;;;;;30.40;15.65;;;;;;;0.80;68.57;98942.84;5225973;28;20049;-70
2023/01/20 07:41:14;;;;;;;29.88;15.32;;;;;;;0.80;68.50;98950.69;5225753;28;20052;-70
2023/01/20 07:44:04;;;;;;;40.58;16.17;;;;;;;0.72;68.49;98937.19;5221872;28;20515;-70
2023/01/20 07:46:56;;;;;;;33.42;16.02;;;;;;;0.89;68.26;98958.00;5226859;28;20057;-71
2023/01/20 07:49:46;;;;;;;33.08;15.43;;;;;;;0.92;67.54;98963.03;5222163;28;20051;-69
2023/01/20 07:52:36;;;;;;;30.70;15.13;;;;;;;0.82;67.28;98967.06;5218480;28;20469;-70
2023/01/20 07:55:27;;;;;;;29.45;14.70;;;;;;;0.87;67.68;98962.47;5246607;28;20063;-70
2023/01/20 07:58:17;;;;;;;31.80;15.18;;;;;;;0.97;67.78;98967.19;5216848;28;20411;-70
2023/01/20 08:01:10;;;;;;;36.53;15.15;;;;;;;0.90;68.57;98979.72;5218000;28;20148;-69
2023/01/20 08:04:00;;;;;;;32.93;15.80;;;;;;;0.96;68.34;98978.53;5221405;28;20091;-69
2023/01/20 08:06:50;;;;;;;37.20;15.88;;;;;;;0.92;68.70;98965.66;5223491;28;20054;-69
2023/01/20 08:09:42;;;;;;;30.10;16.63;;;;;;;1.12;68.93;98995.03;5222318;28;20055;-69
2023/01/20 08:12:33;;;;;;;38.38;17.20;;;;;;;1.27;67.91;98988.16;5218003;28;20130;-68
2023/01/20 08:15:23;;;;;;;35.15;17.90;;;;;;;1.24;68.22;98996.16;5222146;28;20052;-69
2023/01/20 08:18:13;;;;;;;35.35;17.35;;;;;;;1.09;68.70;98997.81;5219385;28;20056;-70
2023/01/20 08:21:07;;;;;;;32.33;15.95;;;;;;;1.33;67.89;99009.53;5219790;28;20135;-70
2023/01/20 08:23:58;;;;;;;;;;;;;;;1.32;67.73;99005.22;5219981;28;20529;-69
2023/01/20 08:26:49;;;;;;;66.13;26.65;;;;;;;1.27;67.78;98994.22;5215772;28;19951;-69
2023/01/20 08:29:39;;;;;;;39.35;18.20;;;;;;;1.43;68.51;99012.50;5192772;28;20634;-69
2023/01/20 08:32:29;;;;;;;40.47;18.13;;;;;;;1.50;68.00;99015.59;5203047;28;20137;-69
2023/01/20 08:35:20;;;;;;;36.38;16.90;;;;;;;1.44;68.14;99023.78;5208503;28;20232;-69
2023/01/20 08:38:10;;;;;;;34.88;16.85;;;;;;;1.30;67.58;98998.44;5206166;28;20056;-69
2023/01/20 08:41:00;;;;;;;30.67;16.00;;;;;;;1.43;66.44;99029.94;5207722;28;20815;-68
2023/01/20 08:43:50;;;;;;;34.97;17.08;;;;;;;1.64;67.51;99026.09;5207965;28;20057;-68
2023/01/20 08:46:42;;;;;;;37.88;17.95;;;;;;;1.64;66.90;99029.56;5205284;28;20091;-70
2023/01/20 08:49:32;;;;;;;39.33;18.23;;;;;;;1.63;66.87;99037.50;5203129;28;20428;-70
2023/01/20 08:52:22;;;;;;;47.78;22.38;;;;;;;1.48;66.63;99033.97;5198972;28;20110;-69
2023/01/20 08:55:12;;;;;;;44.67;20.60;;;;;;;1.64;67.25;99045.25;5197702;28;20056;-70
2023/01/20 08:58:02;;;;;;;31.70;16.55;;;;;;;2.01;66.02;99042.28;5194879;28;20052;-68
2023/01/20 09:00:53;;;;;;;37.50;16.95;;;;;;;1.92;65.62;99016.66;5197652;28;20095;-71
2023/01/20 09:03:44;;;;;;;35.38;16.45;;;;;;;2.05;65.92;99054.25;5203697;28;20103;-71
2023/01/20 09:06:53;;;;;;;39.38;17.33;;;;;;;2.03;65.21;99045.69;5201392;28;20150;-71
2023/01/20 09:09:43;;;;;;;33.58;16.15;;;;;;;2.18;64.65;99064.84;5202168;28;20155;-71
2023/01/20 09:12:34;;;;;;;46.42;22.92;;;;;;;2.27;65.02;99065.16;5210307;28;20053;-71
2023/01/20 09:15:23;;;;;;;36.10;18.30;;;;;;;2.27;64.84;99070.41;5207246;28;20056;-71
2023/01/20 09:18:14;;;;;;;37.08;18.10;;;;;;;2.21;65.38;99052.44;5205517;28;20101;-71
2023/01/20 09:21:05;;;;;;;31.95;17.95;;;;;;;2.07;64.90;99073.34;5200945;28;20053;-70
2023/01/20 09:23:56;;;;;;;30.13;15.82;;;;;;;2.02;65.33;99075.34;5196480;28;20057;-71
2023/01/20 09:26:47;;;;;;;37.25;16.13;;;;;;;1.93;65.63;99068.91;5197683;28;20749;-70
2023/01/20 09:29:38;;;;;;;35.60;16.23;;;;;;;1.96;64.82;99076.56;5196404;28;20051;-70
2023/01/20 09:32:28;;;;;;;32.72;15.55;;;;;;;1.91;65.33;99072.53;5197372;28;20060;-70
2023/01/20 09:35:18;;;;;;;28.52;15.38;;;;;;;2.01;64.85;99084.97;5203622;28;20059;-70
2023/01/20 09:44:43;;;;;;;31.20;14.80;;;;;;;2.13;65.20;99095.69;5206072;28;20440;-70
2023/01/20 09:47:46;;;;;;;24.48;13.82;;;;;;;2.06;64.18;99087.34;5204372;28;20087;-70
2023/01/20 09:54:27;;;;;;;26.80;12.77;;;;;;;2.32;65.33;99098.94;5203866;28;20222;-69
2023/01/20 09:57:23;;;;;;;24.55;13.60;;;;;;;2.25;64.69;99087.97;5202984;28;20098;-69
2023/01/20 10:00:25;;;;;;;24.50;13.35;;;;;;;2.39;64.45;99087.16;5204933;28;21352;-69
2023/01/20 10:03:23;;;;;;;30.20;15.02;;;;;;;2.52;65.14;99095.97;5206015;28;20056;-69
2023/01/20 10:06:25;;;;;;;26.83;14.60;;;;;;;2.62;64.51;99088.41;5204871;28;20135;-69
2023/01/20 10:09:16;;;;;;;30.17;14.77;;;;;;;2.65;64.17;99100.47;5202759;28;21360;-69
2023/01/20 10:12:19;;;;;;;29.40;14.52;;;;;;;2.68;64.63;99102.91;5207740;28;21303;-68
2023/01/20 10:15:19;;;;;;;28.15;15.02;;;;;;;2.86;64.13;99100.97;5205530;28;20068;-69
2023/01/20 10:18:20;;;;;;;32.28;15.30;;;;;;;2.79;64.30;99105.75;5225412;28;20499;-69
2023/01/20 10:21:20;;;;;;;33.22;15.90;;;;;;;2.90;63.97;99105.09;5203820;28;20731;-69
2023/01/20 10:24:17;;;;;;;29.90;15.18;;;;;;;2.89;63.90;99101.63;5209342;28;20175;-69
2023/01/20 10:27:08;;;;;;;29.55;14.95;;;;;;;2.91;64.05;99102.34;5208062;28;20064;-69
2023/01/20 10:30:10;;;;;;;26.92;14.07;;;;;;;2.92;64.05;99101.44;5201152;28;20115;-69
2023/01/20 10:33:08;;;;;;;27.67;15.15;;;;;;;2.95;63.97;99105.66;5199750;28;20526;-68
2023/01/20 10:35:59;;;;;;;27.45;13.30;;;;;;;2.87;64.18;99111.34;5196330;28;20579;-69
2023/01/20 10:39:03;;;;;;;28.30;13.27;;;;;;;2.97;63.38;99114.25;5196762;28;20049;-68
2023/01/20 10:42:03;;;;;;;24.27;13.35;;;;;;;3.14;63.49;99108.81;5196844;28;20053;-68
2023/01/20 10:44:53;;;;;;;31.40;14.55;;;;;;;2.99;63.80;99104.53;5198083;28;20078;-68
2023/01/20 10:48:03;;;;;;;28.10;14.20;;;;;;;3.16;63.38;99106.13;5201864;28;20052;-69
2023/01/20 10:51:04;;;;;;;26.38;13.10;;;;;;;2.81;63.51;99091.63;5220973;28;20056;-68
2023/01/20 10:54:02;;;;;;;29.88;14.55;;;;;;;2.77;63.73;99100.56;5200027;28;20056;-69
2023/01/20 10:56:55;;;;;;;31.90;15.45;;;;;;;3.11;64.08;99105.53;5199644;28;20096;-69
2023/01/20 10:59:53;;;;;;;28.50;13.60;;;;;;;3.09;62.13;99110.91;5195151;28;20049;-69
2023/01/20 11:02:43;;;;;;;29.55;13.45;;;;;;;3.11;63.33;99109.00;5205705;28;20056;-69
2023/01/20 11:05:37;;;;;;;23.92;12.57;;;;;;;3.00;63.75;99106.22;5203204;28;20067;-69
2023/01/20 11:08:28;;;;;;;25.15;12.88;;;;;;;2.96;63.39;99099.47;5206721;28;20673;-70
2023/01/20 11:11:21;;;;;;;24.73;11.85;;;;;;;2.72;64.48;99114.91;5202725;28;20056;-68
2023/01/20 11:14:11;;;;;;;22.25;11.65;;;;;;;2.97;62.80;99112.47;5204240;28;20084;-69
2023/01/20 11:17:06;;;;;;;24.55;10.85;;;;;;;2.71;64.05;99121.88;5198753;28;20129;-69
2023/01/20 11:20:03;;;;;;;20.85;10.55;;;;;;;3.07;62.82;99110.13;5195805;28;20052;-69
2023/01/20 11:22:53;;;;;;;25.13;10.13;;;;;;;3.35;62.38;99116.31;5195484;28;20056;-69
2023/01/20 11:25:53;;;;;;;24.55;9.95;;;;;;;3.42;61.43;99120.22;5196334;28;20057;-69
2023/01/20 11:28:54;;;;;;;16.48;9.93;;;;;;;3.50;62.23;99112.72;5195300;28;20659;-70
2023/01/20 11:31:48;;;;;;;22.77;10.18;;;;;;;3.53;61.64;99104.66;5195730;28;20131;-69
2023/01/20 11:34:48;;;;;;;25.55;9.18;;;;;;;3.22;61.79;99117.06;5211840;28;20671;-69
2023/01/20 11:37:39;;;;;;;16.40;9.02;;;;;;;2.81;63.02;99112.56;5196608;28;20061;-68
2023/01/20 11:40:29;;;;;;;20.23;10.35;;;;;;;3.12;62.83;99121.19;5202509;28;20243;-69
2023/01/20 11:43:32;;;;;;;18.75;9.55;;;;;;;3.59;61.00;99120.00;5216633;28;20060;-69
2023/01/20 11:46:24;;;;;;;20.55;9.25;;;;;;;2.98;63.81;99115.94;5206532;28;20053;-69
2023/01/20 11:49:16;;;;;;;19.75;8.95;;;;;;;3.28;62.39;99121.94;5208911;28;20037;-70
2023/01/20 11:52:18;;;;;;;18.50;9.27;;;;;;;3.10;62.09;99114.34;5196420;28;20136;-69
2023/01/20 11:55:22;;;;;;;22.15;9.15;;;;;;;3.29;62.80;99123.59;5201940;28;20056;-70
2023/01/20 11:58:17;;;;;;;18.70;9.32;;;;;;;3.60;60.23;99119.06;5194029;28;20060;-69
2023/01/20 12:01:21;;;;;;;19.02;9.20;;;;;;;3.46;60.05;99113.84;5197490;28;20048;-70
2023/01/20 12:04:25;;;;;;;19.60;9.13;;;;;;;2.97;62.56;99117.72;5199251;28;20146;-71
2023/01/20 12:07:31;;;;;;;18.88;9.45;;;;;;;3.57;61.48;99124.50;5198705;28;20064;-69
2023/01/20 12:10:31;;;;;;;17.88;8.70;;;;;;;3.82;61.68;99115.09;5198968;28;20060;-68
2023/01/20 12:13:26;;;;;;;17.77;9.20;;;;;;;3.95;60.49;99116.81;5199554;28;20056;-69
2023/01/20 12:16:17;;;;;;;17.00;8.45;;;;;;;4.12;59.32;99109.63;5201095;28;20182;-68
2023/01/20 12:19:15;;;;;;;16.15;8.18;;;;;;;3.75;59.31;99122.50;5196920;28;20113;-67
2023/01/20 12:22:13;;;;;;;16.20;7.40;;;;;;;3.70;61.11;99117.53;5196780;28;20053;-68
2023/01/20 12:25:13;;;;;;;12.13;6.40;;;;;;;4.16;58.33;99119.81;5199039;28;20063;-68
2023/01/20 12:28:12;;;;;;;15.48;6.93;;;;;;;3.75;59.24;99125.13;5196491;28;20053;-68
2023/01/20 12:31:06;;;;;;;14.63;6.38;;;;;;;4.27;57.32;99126.16;5198145;28;20569;-67
2023/01/20 12:34:01;;;;;;;15.65;6.95;;;;;;;3.73;59.33;99111.25;5201558;28;20064;-68
2023/01/20 12:36:51;;;;;;;16.23;7.55;;;;;;;4.41;58.58;99129.56;5203351;28;20154;-68
2023/01/20 12:40:00;;;;;;;11.30;6.13;;;;;;;4.11;57.13;99124.53;5206691;28;20451;-67
2023/01/20 12:43:10;;;;;;;15.98;6.25;;;;;;;4.39;57.23;99127.97;5207055;28;20071;-67
2023/01/20 12:46:19;;;;;;;12.70;6.60;;;;;;;4.04;57.35;99127.66;5200310;28;20056;-68
2023/01/20 12:49:37;;;;;;;16.58;6.85;;;;;;;4.20;57.47;99137.03;5201116;28;20057;-68
2023/01/20 12:52:55;;;;;;;9.63;4.90;;;;;;;4.10;55.27;99133.34;5197526;28;20577;-68
2023/01/20 12:56:01;;;;;;;16.15;7.15;;;;;;;3.91;57.84;99122.38;5199318;28;20194;-69
2023/01/20 12:59:18;;;;;;;15.23;7.40;;;;;;;4.03;57.59;99124.19;5218422;28;20063;-68
2023/01/20 13:02:14;;;;;;;16.42;7.68;;;;;;;3.98;58.85;99137.63;5218587;28;20491;-67
2023/01/20 13:05:08;;;;;;;25.45;8.63;;;;;;;4.03;58.33;99137.31;5221243;28;20471;-69
2023/01/20 13:08:14;;;;;;;25.83;7.70;;;;;;;4.17;57.47;99139.03;5200875;28;20522;-68
2023/01/20 13:11:07;;;;;;;14.30;6.88;;;;;;;4.09;57.37;99144.78;5203182;28;20127;-69
2023/01/20 13:14:05;;;;;;;17.47;6.73;;;;;;;3.63;58.03;99137.22;5205642;28;20175;-68
2023/01/20 13:17:05;;;;;;;12.95;6.35;;;;;;;4.16;57.42;99138.19;5199969;28;20138;-69
2023/01/20 13:19:57;;;;;;;11.52;6.10;;;;;;;4.59;56.74;99137.16;5195686;28;20061;-69
2023/01/20 13:22:49;;;;;;;12.15;6.05;;;;;;;4.24;54.76;99128.06;5199491;28;20072;-68
2023/01/20 13:25:40;;;;;;;11.02;5.47;;;;;;;4.38;56.44;99142.88;5204042;28;20056;-68
2023/01/20 13:28:31;;;;;;;17.02;6.38;;;;;;;4.56;56.50;99127.69;5210270;28;20049;-69
2023/01/20 13:31:36;;;;;;;14.73;6.40;;;;;;;4.61;55.69;99135.28;5209740;28;20602;-68
2023/01/20 13:34:31;;;;;;;14.75;6.35;;;;;;;4.55;56.00;99123.38;5207429;28;20056;-69
2023/01/20 13:37:36;;;;;;;10.82;5.90;;;;;;;4.82;55.83;99135.59;5208476;28;20076;-69
2023/01/20 13:40:36;;;;;;;9.45;5.47;;;;;;;4.27;55.75;99147.16;5209170;28;20041;-68
2023/01/20 13:43:54;;;;;;;11.00;5.13;;;;;;;4.92;56.22;99148.00;5206713;28;20086;-69
2023/01/20 13:46:45;;;;;;;14.77;5.90;;;;;;;4.95;55.62;99152.22;5204510;28;20417;-70